sensor_id;sensor_type;location;lat;lon;timestamp;temperature;humidity
18506;DHT22;9382;53.242;10.438;2024-02-16T00:02:10;11.40;99.90
18506;DHT22;9382;53.242;10.438;2024-02-16T00:04:43;11.40;99.90
18506;DHT22;9382;53.242;10.438;2024-02-16T00:07:12;11.40;99.90
18506;DHT22;9382;53.242;10.438;2024-02-16T00:09:39;11.30;99.90
18506;DHT22;9382;53.242;10.438;2024-02-16T00:12:08;11.30;99.90
18506;DHT22;9382;53.242;10.438;2024-02-16T00:14:35;11.30;99.90
18506;DHT22;9382;53.242;10.438;2024-02-16T00:17:05;11.20;99.90
18506;DHT22;9382;53.242;10.438;2024-02-16T00:19:35;11.20;99.90
18506;DHT22;9382;53.242;10.438;2024-02-16T00:22:03;11.20;99.90
18506;DHT22;9382;53.242;10.438;2024-02-16T00:24:35;11.20;99.90
18506;DHT22;9382;53.242;10.438;2024-02-16T00:27:03;11.20;99.90
18506;DHT22;9382;53.242;10.438;2024-02-16T00:29:32;11.20;99.90
18506;DHT22;9382;53.242;10.438;2024-02-16T00:31:59;11.20;99.90
18506;DHT22;9382;53.242;10.438;2024-02-16T00:34:28;11.20;99.90
18506;DHT22;9382;53.242;10.438;2024-02-16T00:36:55;11.20;99.90
18506;DHT22;9382;53.242;10.438;2024-02-16T00:39:23;11.20;99.90
18506;DHT22;9382;53.242;10.438;2024-02-16T00:41:52;11.20;99.90
18506;DHT22;9382;53.242;10.438;2024-02-16T00:44:19;11.20;99.90
18506;DHT22;9382;53.242;10.438;2024-02-16T00:46:46;11.20;99.90
18506;DHT22;9382;53.242;10.438;2024-02-16T00:49:13;11.20;99.90
18506;DHT22;9382;53.242;10.438;2024-02-16T00:51:41;11.20;99.90
18506;DHT22;9382;53.242;10.438;2024-02-16T00:54:08;11.20;99.90
18506;DHT22;9382;53.242;10.438;2024-02-16T00:56:36;11.20;99.90
18506;DHT22;9382;53.242;10.438;2024-02-16T00:59:04;11.20;99.90
18506;DHT22;9382;53.242;10.438;2024-02-16T01:01:31;11.20;99.90
18506;DHT22;9382;53.242;10.438;2024-02-16T01:04:00;11.10;99.90
18506;DHT22;9382;53.242;10.438;2024-02-16T01:06:27;11.10;99.90
18506;DHT22;9382;53.242;10.438;2024-02-16T01:08:54;11.10;99.90
18506;DHT22;9382;53.242;10.438;2024-02-16T01:11:22;11.10;99.90
18506;DHT22;9382;53.242;10.438;2024-02-16T01:13:50;11.10;99.90
18506;DHT22;9382;53.242;10.438;2024-02-16T01:16:17;11.10;99.90
18506;DHT22;9382;53.242;10.438;2024-02-16T01:18:46;11.00;99.90
18506;DHT22;9382;53.242;10.438;2024-02-16T01:21:13;11.00;99.90
18506;DHT22;9382;53.242;10.438;2024-02-16T01:23:40;11.10;99.90
18506;DHT22;9382;53.242;10.438;2024-02-16T01:26:07;11.10;99.90
18506;DHT22;9382;53.242;10.438;2024-02-16T01:28:34;11.00;99.90
18506;DHT22;9382;53.242;10.438;2024-02-16T01:31:05;11.10;99.90
18506;DHT22;9382;53.242;10.438;2024-02-16T01:33:32;11.10;99.90
18506;DHT22;9382;53.242;10.438;2024-02-16T01:36:01;11.00;99.90
18506;DHT22;9382;53.242;10.438;2024-02-16T01:38:29;11.00;99.90
18506;DHT22;9382;53.242;10.438;2024-02-16T01:40:56;11.00;99.90
18506;DHT22;9382;53.242;10.438;2024-02-16T01:43:23;11.00;99.90
18506;DHT22;9382;53.242;10.438;2024-02-16T01:45:50;11.00;99.90
18506;DHT22;9382;53.242;10.438;2024-02-16T01:48:20;11.00;99.90
18506;DHT22;9382;53.242;10.438;2024-02-16T01:50:48;11.00;99.90
18506;DHT22;9382;53.242;10.438;2024-02-16T01:53:16;11.00;99.90
18506;DHT22;9382;53.242;10.438;2024-02-16T01:55:46;10.90;99.90
18506;DHT22;9382;53.242;10.438;2024-02-16T01:58:13;10.90;99.90
18506;DHT22;9382;53.242;10.438;2024-02-16T02:00:40;10.90;99.90
18506;DHT22;9382;53.242;10.438;2024-02-16T02:03:08;10.90;99.90
18506;DHT22;9382;53.242;10.438;2024-02-16T02:05:43;10.90;99.90
18506;DHT22;9382;53.242;10.438;2024-02-16T02:08:11;10.80;99.90
18506;DHT22;9382;53.242;10.438;2024-02-16T02:10:38;10.80;99.90
18506;DHT22;9382;53.242;10.438;2024-02-16T02:13:05;10.80;99.90
18506;DHT22;9382;53.242;10.438;2024-02-16T02:15:32;10.80;99.90
18506;DHT22;9382;53.242;10.438;2024-02-16T02:17:59;10.80;99.90
18506;DHT22;9382;53.242;10.438;2024-02-16T02:20:26;10.80;99.90
18506;DHT22;9382;53.242;10.438;2024-02-16T02:22:54;10.70;99.90
18506;DHT22;9382;53.242;10.438;2024-02-16T02:25:20;10.70;99.90
18506;DHT22;9382;53.242;10.438;2024-02-16T02:27:47;10.70;99.90
18506;DHT22;9382;53.242;10.438;2024-02-16T02:30:14;10.70;99.90
18506;DHT22;9382;53.242;10.438;2024-02-16T02:32:42;10.70;99.90
18506;DHT22;9382;53.242;10.438;2024-02-16T02:35:09;10.70;99.90
18506;DHT22;9382;53.242;10.438;2024-02-16T02:37:36;10.70;99.90
18506;DHT22;9382;53.242;10.438;2024-02-16T02:40:10;10.70;99.90
18506;DHT22;9382;53.242;10.438;2024-02-16T02:42:37;10.70;99.90
18506;DHT22;9382;53.242;10.438;2024-02-16T02:45:06;10.70;99.90
18506;DHT22;9382;53.242;10.438;2024-02-16T02:47:33;10.70;99.90
18506;DHT22;9382;53.242;10.438;2024-02-16T02:50:00;10.70;99.90
18506;DHT22;9382;53.242;10.438;2024-02-16T02:52:29;10.70;99.90
18506;DHT22;9382;53.242;10.438;2024-02-16T02:54:59;10.70;99.90
18506;DHT22;9382;53.242;10.438;2024-02-16T02:57:40;10.70;99.90
18506;DHT22;9382;53.242;10.438;2024-02-16T03:00:15;10.80;99.90
18506;DHT22;9382;53.242;10.438;2024-02-16T03:02:54;10.80;99.90
18506;DHT22;9382;53.242;10.438;2024-02-16T03:05:23;10.80;99.90
18506;DHT22;9382;53.242;10.438;2024-02-16T03:07:50;10.80;99.90
18506;DHT22;9382;53.242;10.438;2024-02-16T03:10:18;10.80;99.90
18506;DHT22;9382;53.242;10.438;2024-02-16T03:12:52;10.80;99.90
18506;DHT22;9382;53.242;10.438;2024-02-16T03:15:21;10.80;99.90
18506;DHT22;9382;53.242;10.438;2024-02-16T03:17:48;10.80;99.90
18506;DHT22;9382;53.242;10.438;2024-02-16T03:20:21;10.80;99.90
18506;DHT22;9382;53.242;10.438;2024-02-16T03:22:49;10.80;99.90
18506;DHT22;9382;53.242;10.438;2024-02-16T03:25:16;10.80;99.90
18506;DHT22;9382;53.242;10.438;2024-02-16T03:27:45;10.80;99.90
18506;DHT22;9382;53.242;10.438;2024-02-16T03:30:19;10.80;99.90
18506;DHT22;9382;53.242;10.438;2024-02-16T03:32:48;10.80;99.90
18506;DHT22;9382;53.242;10.438;2024-02-16T03:35:15;10.80;99.90
18506;DHT22;9382;53.242;10.438;2024-02-16T03:37:42;10.80;99.90
18506;DHT22;9382;53.242;10.438;2024-02-16T03:40:09;10.80;99.90
18506;DHT22;9382;53.242;10.438;2024-02-16T03:42:38;10.80;99.90
18506;DHT22;9382;53.242;10.438;2024-02-16T03:45:06;10.80;99.90
18506;DHT22;9382;53.242;10.438;2024-02-16T03:47:34;10.80;99.90
18506;DHT22;9382;53.242;10.438;2024-02-16T03:50:07;10.80;99.90
18506;DHT22;9382;53.242;10.438;2024-02-16T03:52:34;10.80;99.90
18506;DHT22;9382;53.242;10.438;2024-02-16T03:55:02;10.80;99.90
18506;DHT22;9382;53.242;10.438;2024-02-16T03:57:30;10.80;99.90
18506;DHT22;9382;53.242;10.438;2024-02-16T04:00:00;10.70;99.90
18506;DHT22;9382;53.242;10.438;2024-02-16T04:02:31;10.70;99.90
18506;DHT22;9382;53.242;10.438;2024-02-16T04:04:59;10.70;99.90
18506;DHT22;9382;53.242;10.438;2024-02-16T04:07:26;10.70;99.90
18506;DHT22;9382;53.242;10.438;2024-02-16T04:09:53;10.70;99.90
18506;DHT22;9382;53.242;10.438;2024-02-16T04:12:20;10.70;99.90
18506;DHT22;9382;53.242;10.438;2024-02-16T04:14:46;10.60;99.90
18506;DHT22;9382;53.242;10.438;2024-02-16T04:17:13;10.60;99.90
18506;DHT22;9382;53.242;10.438;2024-02-16T04:19:42;10.60;99.90
18506;DHT22;9382;53.242;10.438;2024-02-16T04:22:13;10.60;99.90
18506;DHT22;9382;53.242;10.438;2024-02-16T04:24:41;10.60;99.90
18506;DHT22;9382;53.242;10.438;2024-02-16T04:27:08;10.60;99.90
18506;DHT22;9382;53.242;10.438;2024-02-16T04:29:37;10.60;99.90
18506;DHT22;9382;53.242;10.438;2024-02-16T04:32:04;10.60;99.90
18506;DHT22;9382;53.242;10.438;2024-02-16T04:34:34;10.60;99.90
18506;DHT22;9382;53.242;10.438;2024-02-16T04:37:01;10.60;99.90
18506;DHT22;9382;53.242;10.438;2024-02-16T04:39:29;10.60;99.90
18506;DHT22;9382;53.242;10.438;2024-02-16T04:41:57;10.60;99.90
18506;DHT22;9382;53.242;10.438;2024-02-16T04:44:24;10.60;99.90
18506;DHT22;9382;53.242;10.438;2024-02-16T04:46:52;10.60;99.90
18506;DHT22;9382;53.242;10.438;2024-02-16T04:49:25;10.60;99.90
18506;DHT22;9382;53.242;10.438;2024-02-16T04:51:53;10.60;99.90
18506;DHT22;9382;53.242;10.438;2024-02-16T04:54:20;10.60;99.90
18506;DHT22;9382;53.242;10.438;2024-02-16T04:56:49;10.60;99.90
18506;DHT22;9382;53.242;10.438;2024-02-16T04:59:17;10.60;99.90
18506;DHT22;9382;53.242;10.438;2024-02-16T05:01:44;10.60;99.90
18506;DHT22;9382;53.242;10.438;2024-02-16T05:04:16;10.60;99.90
18506;DHT22;9382;53.242;10.438;2024-02-16T05:06:49;10.70;99.90
18506;DHT22;9382;53.242;10.438;2024-02-16T05:09:18;10.70;99.90
18506;DHT22;9382;53.242;10.438;2024-02-16T05:11:45;10.60;99.90
18506;DHT22;9382;53.242;10.438;2024-02-16T05:14:19;10.60;99.90
18506;DHT22;9382;53.242;10.438;2024-02-16T05:16:46;10.70;99.90
18506;DHT22;9382;53.242;10.438;2024-02-16T05:19:13;10.70;99.90
18506;DHT22;9382;53.242;10.438;2024-02-16T05:21:40;10.70;99.90
18506;DHT22;9382;53.242;10.438;2024-02-16T05:24:07;10.70;99.90
18506;DHT22;9382;53.242;10.438;2024-02-16T05:26:35;10.70;99.90
18506;DHT22;9382;53.242;10.438;2024-02-16T05:29:07;10.70;99.90
18506;DHT22;9382;53.242;10.438;2024-02-16T05:31:43;10.70;99.90
18506;DHT22;9382;53.242;10.438;2024-02-16T05:34:13;10.70;99.90
18506;DHT22;9382;53.242;10.438;2024-02-16T05:36:42;10.70;99.90
18506;DHT22;9382;53.242;10.438;2024-02-16T05:39:13;10.70;99.90
18506;DHT22;9382;53.242;10.438;2024-02-16T05:42:08;10.70;99.90
18506;DHT22;9382;53.242;10.438;2024-02-16T05:44:47;10.70;99.90
18506;DHT22;9382;53.242;10.438;2024-02-16T05:47:16;10.80;99.90
18506;DHT22;9382;53.242;10.438;2024-02-16T05:49:50;10.70;99.90
18506;DHT22;9382;53.242;10.438;2024-02-16T05:52:26;10.70;99.90
18506;DHT22;9382;53.242;10.438;2024-02-16T05:54:58;10.70;99.90
18506;DHT22;9382;53.242;10.438;2024-02-16T05:57:36;10.70;99.90
18506;DHT22;9382;53.242;10.438;2024-02-16T06:00:12;10.70;99.90
18506;DHT22;9382;53.242;10.438;2024-02-16T06:02:46;10.70;99.90
18506;DHT22;9382;53.242;10.438;2024-02-16T06:05:21;10.70;99.90
18506;DHT22;9382;53.242;10.438;2024-02-16T06:07:48;10.70;99.90
18506;DHT22;9382;53.242;10.438;2024-02-16T06:10:25;10.70;99.90
18506;DHT22;9382;53.242;10.438;2024-02-16T06:12:56;10.70;99.90
18506;DHT22;9382;53.242;10.438;2024-02-16T06:15:25;10.70;99.90
18506;DHT22;9382;53.242;10.438;2024-02-16T06:18:02;10.70;99.90
18506;DHT22;9382;53.242;10.438;2024-02-16T06:20:30;10.70;99.90
18506;DHT22;9382;53.242;10.438;2024-02-16T06:23:02;10.60;99.90
18506;DHT22;9382;53.242;10.438;2024-02-16T06:25:29;10.60;99.90
18506;DHT22;9382;53.242;10.438;2024-02-16T06:27:58;10.60;99.90
18506;DHT22;9382;53.242;10.438;2024-02-16T06:30:25;10.60;99.90
18506;DHT22;9382;53.242;10.438;2024-02-16T06:32:53;10.60;99.90
18506;DHT22;9382;53.242;10.438;2024-02-16T06:35:20;10.60;99.90
18506;DHT22;9382;53.242;10.438;2024-02-16T06:37:47;10.50;99.90
18506;DHT22;9382;53.242;10.438;2024-02-16T06:40:14;10.50;99.90
18506;DHT22;9382;53.242;10.438;2024-02-16T06:42:41;10.50;99.90
18506;DHT22;9382;53.242;10.438;2024-02-16T06:45:09;10.50;99.90
18506;DHT22;9382;53.242;10.438;2024-02-16T06:47:36;10.40;99.90
18506;DHT22;9382;53.242;10.438;2024-02-16T06:50:05;10.50;99.90
18506;DHT22;9382;53.242;10.438;2024-02-16T06:52:32;10.50;99.90
18506;DHT22;9382;53.242;10.438;2024-02-16T06:54:59;10.50;99.90
18506;DHT22;9382;53.242;10.438;2024-02-16T06:57:26;10.50;99.90
18506;DHT22;9382;53.242;10.438;2024-02-16T06:59:53;10.50;99.90
18506;DHT22;9382;53.242;10.438;2024-02-16T07:02:22;10.50;99.90
18506;DHT22;9382;53.242;10.438;2024-02-16T07:04:51;10.50;99.90
18506;DHT22;9382;53.242;10.438;2024-02-16T07:07:19;10.50;99.90
18506;DHT22;9382;53.242;10.438;2024-02-16T07:09:46;10.50;99.90
18506;DHT22;9382;53.242;10.438;2024-02-16T07:12:14;10.50;99.90
18506;DHT22;9382;53.242;10.438;2024-02-16T07:14:41;10.50;99.90
18506;DHT22;9382;53.242;10.438;2024-02-16T07:17:12;10.50;99.90
18506;DHT22;9382;53.242;10.438;2024-02-16T07:19:39;10.50;99.90
18506;DHT22;9382;53.242;10.438;2024-02-16T07:22:06;10.50;99.90
18506;DHT22;9382;53.242;10.438;2024-02-16T07:24:34;10.60;99.90
18506;DHT22;9382;53.242;10.438;2024-02-16T07:27:01;10.60;99.90
18506;DHT22;9382;53.242;10.438;2024-02-16T07:29:28;10.60;99.90
18506;DHT22;9382;53.242;10.438;2024-02-16T07:31:55;10.60;99.90
18506;DHT22;9382;53.242;10.438;2024-02-16T07:34:24;10.60;99.90
18506;DHT22;9382;53.242;10.438;2024-02-16T07:36:50;10.60;99.90
18506;DHT22;9382;53.242;10.438;2024-02-16T07:39:18;10.60;99.90
18506;DHT22;9382;53.242;10.438;2024-02-16T07:41:49;10.60;99.90
18506;DHT22;9382;53.242;10.438;2024-02-16T07:44:16;10.70;99.90
18506;DHT22;9382;53.242;10.438;2024-02-16T07:46:43;10.70;99.90
18506;DHT22;9382;53.242;10.438;2024-02-16T07:49:11;10.70;99.90
18506;DHT22;9382;53.242;10.438;2024-02-16T07:51:39;10.70;99.90
18506;DHT22;9382;53.242;10.438;2024-02-16T07:54:06;10.70;99.90
18506;DHT22;9382;53.242;10.438;2024-02-16T07:56:33;10.80;99.90
18506;DHT22;9382;53.242;10.438;2024-02-16T07:59:01;10.90;99.90
18506;DHT22;9382;53.242;10.438;2024-02-16T08:01:30;11.00;99.90
18506;DHT22;9382;53.242;10.438;2024-02-16T08:03:57;11.10;99.90
18506;DHT22;9382;53.242;10.438;2024-02-16T08:06:27;11.20;99.90
18506;DHT22;9382;53.242;10.438;2024-02-16T08:08:54;11.30;99.90
18506;DHT22;9382;53.242;10.438;2024-02-16T08:11:20;11.40;99.90
18506;DHT22;9382;53.242;10.438;2024-02-16T08:13:47;11.60;99.90
18506;DHT22;9382;53.242;10.438;2024-02-16T08:16:16;11.80;99.90
18506;DHT22;9382;53.242;10.438;2024-02-16T08:18:43;11.90;99.90
18506;DHT22;9382;53.242;10.438;2024-02-16T08:21:10;12.00;99.90
18506;DHT22;9382;53.242;10.438;2024-02-16T08:23:37;12.20;99.90
18506;DHT22;9382;53.242;10.438;2024-02-16T08:26:04;12.30;99.90
18506;DHT22;9382;53.242;10.438;2024-02-16T08:28:31;12.40;99.90
18506;DHT22;9382;53.242;10.438;2024-02-16T08:31:17;12.40;99.90
18506;DHT22;9382;53.242;10.438;2024-02-16T08:33:44;12.50;99.90
18506;DHT22;9382;53.242;10.438;2024-02-16T08:36:12;12.50;99.90
18506;DHT22;9382;53.242;10.438;2024-02-16T08:38:39;12.60;99.90
18506;DHT22;9382;53.242;10.438;2024-02-16T08:41:05;12.70;99.90
18506;DHT22;9382;53.242;10.438;2024-02-16T08:43:32;12.80;99.90
18506;DHT22;9382;53.242;10.438;2024-02-16T08:46:01;12.90;99.90
18506;DHT22;9382;53.242;10.438;2024-02-16T08:48:29;12.90;99.90
18506;DHT22;9382;53.242;10.438;2024-02-16T08:50:55;12.90;99.90
18506;DHT22;9382;53.242;10.438;2024-02-16T08:53:22;13.00;99.90
18506;DHT22;9382;53.242;10.438;2024-02-16T08:55:49;13.00;99.90
18506;DHT22;9382;53.242;10.438;2024-02-16T08:58:16;13.10;99.90
18506;DHT22;9382;53.242;10.438;2024-02-16T09:00:43;13.10;99.90
18506;DHT22;9382;53.242;10.438;2024-02-16T09:03:10;13.10;99.90
18506;DHT22;9382;53.242;10.438;2024-02-16T09:05:38;13.20;99.90
18506;DHT22;9382;53.242;10.438;2024-02-16T09:08:05;13.40;99.90
18506;DHT22;9382;53.242;10.438;2024-02-16T09:10:32;13.50;99.90
18506;DHT22;9382;53.242;10.438;2024-02-16T09:12:59;13.60;99.90
18506;DHT22;9382;53.242;10.438;2024-02-16T09:15:26;13.60;99.90
18506;DHT22;9382;53.242;10.438;2024-02-16T09:17:53;13.50;99.90
18506;DHT22;9382;53.242;10.438;2024-02-16T09:20:22;13.50;99.90
18506;DHT22;9382;53.242;10.438;2024-02-16T09:22:50;13.60;99.90
18506;DHT22;9382;53.242;10.438;2024-02-16T09:25:17;13.50;99.90
18506;DHT22;9382;53.242;10.438;2024-02-16T09:27:43;13.60;99.90
18506;DHT22;9382;53.242;10.438;2024-02-16T09:30:11;13.70;99.90
18506;DHT22;9382;53.242;10.438;2024-02-16T09:32:39;13.80;99.90
18506;DHT22;9382;53.242;10.438;2024-02-16T09:35:06;13.80;99.90
18506;DHT22;9382;53.242;10.438;2024-02-16T09:37:34;13.90;99.90
18506;DHT22;9382;53.242;10.438;2024-02-16T09:40:03;13.90;99.90
18506;DHT22;9382;53.242;10.438;2024-02-16T09:42:30;14.10;99.90
18506;DHT22;9382;53.242;10.438;2024-02-16T09:44:59;14.30;99.90
18506;DHT22;9382;53.242;10.438;2024-02-16T09:47:26;14.30;99.90
18506;DHT22;9382;53.242;10.438;2024-02-16T09:49:55;14.40;99.90
18506;DHT22;9382;53.242;10.438;2024-02-16T09:52:22;14.40;99.90
18506;DHT22;9382;53.242;10.438;2024-02-16T09:54:50;14.40;99.90
18506;DHT22;9382;53.242;10.438;2024-02-16T09:57:18;14.40;99.90
18506;DHT22;9382;53.242;10.438;2024-02-16T09:59:45;14.50;99.90
18506;DHT22;9382;53.242;10.438;2024-02-16T10:02:14;14.50;99.90
18506;DHT22;9382;53.242;10.438;2024-02-16T10:04:42;14.60;99.90
18506;DHT22;9382;53.242;10.438;2024-02-16T10:07:10;14.60;99.90
18506;DHT22;9382;53.242;10.438;2024-02-16T10:09:38;14.60;99.90
18506;DHT22;9382;53.242;10.438;2024-02-16T10:12:06;14.70;99.90
18506;DHT22;9382;53.242;10.438;2024-02-16T10:14:34;14.80;99.90
18506;DHT22;9382;53.242;10.438;2024-02-16T10:17:01;14.90;99.90
18506;DHT22;9382;53.242;10.438;2024-02-16T10:19:29;14.90;99.90
18506;DHT22;9382;53.242;10.438;2024-02-16T10:22:06;15.00;99.90
18506;DHT22;9382;53.242;10.438;2024-02-16T10:24:34;14.90;99.90
18506;DHT22;9382;53.242;10.438;2024-02-16T10:27:00;14.90;99.90
18506;DHT22;9382;53.242;10.438;2024-02-16T10:29:28;15.00;99.90
18506;DHT22;9382;53.242;10.438;2024-02-16T10:31:57;15.10;99.90
18506;DHT22;9382;53.242;10.438;2024-02-16T10:34:24;15.30;99.90
18506;DHT22;9382;53.242;10.438;2024-02-16T10:36:52;15.60;99.90
18506;DHT22;9382;53.242;10.438;2024-02-16T10:39:22;16.00;99.90
18506;DHT22;9382;53.242;10.438;2024-02-16T10:41:54;16.50;99.90
18506;DHT22;9382;53.242;10.438;2024-02-16T10:44:26;16.70;99.90
18506;DHT22;9382;53.242;10.438;2024-02-16T10:46:55;16.80;99.90
18506;DHT22;9382;53.242;10.438;2024-02-16T10:49:25;16.90;99.90
18506;DHT22;9382;53.242;10.438;2024-02-16T10:51:56;17.10;99.90
18506;DHT22;9382;53.242;10.438;2024-02-16T10:54:29;17.30;99.90
18506;DHT22;9382;53.242;10.438;2024-02-16T10:56:57;17.40;99.90
18506;DHT22;9382;53.242;10.438;2024-02-16T10:59:24;17.40;99.90
18506;DHT22;9382;53.242;10.438;2024-02-16T11:02:01;17.30;99.90
18506;DHT22;9382;53.242;10.438;2024-02-16T11:04:39;17.10;99.90
18506;DHT22;9382;53.242;10.438;2024-02-16T11:07:15;17.00;99.90
18506;DHT22;9382;53.242;10.438;2024-02-16T11:09:46;16.70;99.90
18506;DHT22;9382;53.242;10.438;2024-02-16T11:12:14;16.60;99.90
18506;DHT22;9382;53.242;10.438;2024-02-16T11:14:42;16.50;99.90
18506;DHT22;9382;53.242;10.438;2024-02-16T11:17:10;16.50;99.90
18506;DHT22;9382;53.242;10.438;2024-02-16T11:19:40;16.40;99.90
18506;DHT22;9382;53.242;10.438;2024-02-16T11:22:07;16.50;99.90
18506;DHT22;9382;53.242;10.438;2024-02-16T11:24:36;16.50;99.90
18506;DHT22;9382;53.242;10.438;2024-02-16T11:27:04;16.50;99.90
18506;DHT22;9382;53.242;10.438;2024-02-16T11:29:32;16.60;99.90
18506;DHT22;9382;53.242;10.438;2024-02-16T11:32:00;16.60;99.90
18506;DHT22;9382;53.242;10.438;2024-02-16T11:34:27;16.50;99.90
18506;DHT22;9382;53.242;10.438;2024-02-16T11:36:57;16.40;99.90
18506;DHT22;9382;53.242;10.438;2024-02-16T11:39:24;16.40;99.90
18506;DHT22;9382;53.242;10.438;2024-02-16T11:42:02;16.30;99.90
18506;DHT22;9382;53.242;10.438;2024-02-16T11:44:32;16.20;99.90
18506;DHT22;9382;53.242;10.438;2024-02-16T11:46:59;16.10;99.90
18506;DHT22;9382;53.242;10.438;2024-02-16T11:49:27;16.10;99.90
18506;DHT22;9382;53.242;10.438;2024-02-16T11:51:56;16.10;99.90
18506;DHT22;9382;53.242;10.438;2024-02-16T11:54:23;16.20;99.90
18506;DHT22;9382;53.242;10.438;2024-02-16T11:56:52;16.30;99.90
18506;DHT22;9382;53.242;10.438;2024-02-16T11:59:19;16.40;99.90
18506;DHT22;9382;53.242;10.438;2024-02-16T12:01:53;16.50;99.90
18506;DHT22;9382;53.242;10.438;2024-02-16T12:04:21;16.50;99.90
18506;DHT22;9382;53.242;10.438;2024-02-16T12:06:54;16.70;99.90
18506;DHT22;9382;53.242;10.438;2024-02-16T12:09:23;16.80;99.90
18506;DHT22;9382;53.242;10.438;2024-02-16T12:11:51;16.80;99.90
18506;DHT22;9382;53.242;10.438;2024-02-16T12:14:21;16.80;99.90
18506;DHT22;9382;53.242;10.438;2024-02-16T12:16:48;16.80;99.90
18506;DHT22;9382;53.242;10.438;2024-02-16T12:19:15;16.80;99.90
18506;DHT22;9382;53.242;10.438;2024-02-16T12:21:44;16.70;99.90
18506;DHT22;9382;53.242;10.438;2024-02-16T12:24:11;16.80;99.90
18506;DHT22;9382;53.242;10.438;2024-02-16T12:26:42;17.00;99.90
18506;DHT22;9382;53.242;10.438;2024-02-16T12:29:11;17.30;99.90
18506;DHT22;9382;53.242;10.438;2024-02-16T12:31:38;17.50;99.90
18506;DHT22;9382;53.242;10.438;2024-02-16T12:34:06;17.30;99.90
18506;DHT22;9382;53.242;10.438;2024-02-16T12:36:36;17.20;99.90
18506;DHT22;9382;53.242;10.438;2024-02-16T12:39:05;17.10;99.90
18506;DHT22;9382;53.242;10.438;2024-02-16T12:41:34;16.90;99.90
18506;DHT22;9382;53.242;10.438;2024-02-16T12:44:04;16.80;99.90
18506;DHT22;9382;53.242;10.438;2024-02-16T12:46:31;16.80;99.90
18506;DHT22;9382;53.242;10.438;2024-02-16T12:48:59;16.80;99.90
18506;DHT22;9382;53.242;10.438;2024-02-16T12:51:27;16.70;99.90
18506;DHT22;9382;53.242;10.438;2024-02-16T12:53:54;16.70;99.90
18506;DHT22;9382;53.242;10.438;2024-02-16T12:56:21;16.70;99.90
18506;DHT22;9382;53.242;10.438;2024-02-16T12:58:50;16.70;99.90
18506;DHT22;9382;53.242;10.438;2024-02-16T13:01:32;16.80;99.90
18506;DHT22;9382;53.242;10.438;2024-02-16T13:03:59;16.60;99.90
18506;DHT22;9382;53.242;10.438;2024-02-16T13:06:26;16.60;99.90
18506;DHT22;9382;53.242;10.438;2024-02-16T13:08:53;16.60;99.90
18506;DHT22;9382;53.242;10.438;2024-02-16T13:11:20;16.50;99.90
18506;DHT22;9382;53.242;10.438;2024-02-16T13:13:47;16.50;99.90
18506;DHT22;9382;53.242;10.438;2024-02-16T13:16:14;16.50;99.90
18506;DHT22;9382;53.242;10.438;2024-02-16T13:18:42;16.40;99.90
18506;DHT22;9382;53.242;10.438;2024-02-16T13:21:11;16.40;99.90
18506;DHT22;9382;53.242;10.438;2024-02-16T13:23:38;16.40;99.90
18506;DHT22;9382;53.242;10.438;2024-02-16T13:26:05;16.40;99.90
18506;DHT22;9382;53.242;10.438;2024-02-16T13:28:34;16.30;99.90
18506;DHT22;9382;53.242;10.438;2024-02-16T13:31:01;16.30;99.90
18506;DHT22;9382;53.242;10.438;2024-02-16T13:33:27;16.30;99.90
18506;DHT22;9382;53.242;10.438;2024-02-16T13:35:55;16.30;99.90
18506;DHT22;9382;53.242;10.438;2024-02-16T13:38:25;16.40;99.90
18506;DHT22;9382;53.242;10.438;2024-02-16T13:40:51;16.40;99.90
18506;DHT22;9382;53.242;10.438;2024-02-16T13:43:18;16.40;99.90
18506;DHT22;9382;53.242;10.438;2024-02-16T13:45:57;16.30;99.90
18506;DHT22;9382;53.242;10.438;2024-02-16T13:48:25;16.30;99.90
18506;DHT22;9382;53.242;10.438;2024-02-16T13:50:55;16.20;99.90
18506;DHT22;9382;53.242;10.438;2024-02-16T13:53:25;16.20;99.90
18506;DHT22;9382;53.242;10.438;2024-02-16T13:55:52;16.10;99.90
18506;DHT22;9382;53.242;10.438;2024-02-16T13:58:19;16.00;99.90
18506;DHT22;9382;53.242;10.438;2024-02-16T14:00:45;16.00;99.90
18506;DHT22;9382;53.242;10.438;2024-02-16T14:03:14;15.90;99.90
18506;DHT22;9382;53.242;10.438;2024-02-16T14:05:42;15.90;99.90
18506;DHT22;9382;53.242;10.438;2024-02-16T14:08:12;15.90;99.90
18506;DHT22;9382;53.242;10.438;2024-02-16T14:10:43;15.80;99.90
18506;DHT22;9382;53.242;10.438;2024-02-16T14:13:10;15.80;99.90
18506;DHT22;9382;53.242;10.438;2024-02-16T14:15:36;15.70;99.90
18506;DHT22;9382;53.242;10.438;2024-02-16T14:18:03;15.70;99.90
18506;DHT22;9382;53.242;10.438;2024-02-16T14:20:32;15.60;99.90
18506;DHT22;9382;53.242;10.438;2024-02-16T14:23:05;15.60;99.90
18506;DHT22;9382;53.242;10.438;2024-02-16T14:25:36;15.50;99.90
18506;DHT22;9382;53.242;10.438;2024-02-16T14:28:05;15.50;99.90
18506;DHT22;9382;53.242;10.438;2024-02-16T14:30:33;15.40;99.90
18506;DHT22;9382;53.242;10.438;2024-02-16T14:32:59;15.40;99.90
18506;DHT22;9382;53.242;10.438;2024-02-16T14:35:30;15.30;99.90
18506;DHT22;9382;53.242;10.438;2024-02-16T14:37:57;15.30;99.90
18506;DHT22;9382;53.242;10.438;2024-02-16T14:40:26;15.20;99.90
18506;DHT22;9382;53.242;10.438;2024-02-16T14:42:58;15.20;99.90
18506;DHT22;9382;53.242;10.438;2024-02-16T14:45:42;15.20;99.90
18506;DHT22;9382;53.242;10.438;2024-02-16T14:48:11;15.10;99.90
18506;DHT22;9382;53.242;10.438;2024-02-16T14:50:43;15.10;99.90
18506;DHT22;9382;53.242;10.438;2024-02-16T14:53:10;15.00;99.90
18506;DHT22;9382;53.242;10.438;2024-02-16T14:55:38;14.90;99.90
18506;DHT22;9382;53.242;10.438;2024-02-16T14:58:08;14.90;99.90
18506;DHT22;9382;53.242;10.438;2024-02-16T15:00:35;14.90;99.90
18506;DHT22;9382;53.242;10.438;2024-02-16T15:03:03;14.90;99.90
18506;DHT22;9382;53.242;10.438;2024-02-16T15:05:30;14.80;99.90
18506;DHT22;9382;53.242;10.438;2024-02-16T15:07:58;14.70;99.90
18506;DHT22;9382;53.242;10.438;2024-02-16T15:10:25;14.60;99.90
18506;DHT22;9382;53.242;10.438;2024-02-16T15:15:56;14.60;99.90
18506;DHT22;9382;53.242;10.438;2024-02-16T15:18:40;14.60;99.90
18506;DHT22;9382;53.242;10.438;2024-02-16T15:21:06;14.50;99.90
18506;DHT22;9382;53.242;10.438;2024-02-16T15:23:36;14.40;99.90
18506;DHT22;9382;53.242;10.438;2024-02-16T15:26:02;14.40;99.90
18506;DHT22;9382;53.242;10.438;2024-02-16T15:28:39;14.40;99.90
18506;DHT22;9382;53.242;10.438;2024-02-16T15:31:11;14.30;99.90
18506;DHT22;9382;53.242;10.438;2024-02-16T15:33:41;14.30;99.90
18506;DHT22;9382;53.242;10.438;2024-02-16T15:36:08;14.30;99.90
18506;DHT22;9382;53.242;10.438;2024-02-16T15:38:35;14.30;99.90
18506;DHT22;9382;53.242;10.438;2024-02-16T15:41:02;14.30;99.90
18506;DHT22;9382;53.242;10.438;2024-02-16T15:43:33;14.20;99.90